createdAt,value
2018-03-18T00:00:31.910Z,18.25
2018-03-18T00:01:31.898Z,18.29
2018-03-18T00:02:31.864Z,18.26
2018-03-18T00:03:31.926Z,18.23
2018-03-18T00:04:31.909Z,18.26
2018-03-18T00:05:31.884Z,18.23
2018-03-18T00:06:31.892Z,18.23
2018-03-18T00:07:31.855Z,18.28
2018-03-18T00:08:32.200Z,18.24
2018-03-18T00:09:31.908Z,18.19
2018-03-18T00:10:31.882Z,18.26
2018-03-18T00:11:31.900Z,18.22
2018-03-18T00:12:31.899Z,18.2
2018-03-18T00:13:31.868Z,18.25
2018-03-18T00:14:31.887Z,18.21
2018-03-18T00:15:31.911Z,18.19
2018-03-18T00:16:31.867Z,18.24
2018-03-18T00:17:31.854Z,18.18
2018-03-18T00:18:31.888Z,18.18
2018-03-18T00:19:32.176Z,18.22
2018-03-18T00:20:31.865Z,18.18
2018-03-18T00:21:31.890Z,18.14
2018-03-18T00:22:31.880Z,18.15
2018-03-18T00:23:31.882Z,18.14
2018-03-18T00:24:31.881Z,18.12
2018-03-18T00:25:31.849Z,18.19
2018-03-18T00:26:31.851Z,18.15
2018-03-18T00:27:31.889Z,18.13
2018-03-18T00:28:31.873Z,18.19
2018-03-18T00:29:31.855Z,18.12
2018-03-18T00:30:31.897Z,18.09
2018-03-18T00:31:31.861Z,18.17
2018-03-18T00:32:31.853Z,18.11
2018-03-18T00:33:31.890Z,18.1
2018-03-18T00:34:31.894Z,18.14
2018-03-18T00:35:31.916Z,18.1
2018-03-18T00:36:31.893Z,18.11
2018-03-18T00:37:31.839Z,18.17
2018-03-18T00:38:31.854Z,18.09
2018-03-18T00:39:31.885Z,18.08
2018-03-18T00:40:31.857Z,18.12
2018-03-18T00:41:31.903Z,18.1
2018-03-18T00:42:31.879Z,18.09
2018-03-18T00:43:31.878Z,18.09
2018-03-18T00:44:31.882Z,18.07
2018-03-18T00:45:31.952Z,18.06
2018-03-18T00:46:31.842Z,18.12
2018-03-18T00:47:31.985Z,18.09
2018-03-18T00:48:31.970Z,18.04
2018-03-18T00:49:31.846Z,18.07
2018-03-18T00:50:31.903Z,18.05
2018-03-18T00:51:31.882Z,18.04
2018-03-18T00:52:31.872Z,18.06
2018-03-18T00:53:31.862Z,18.03
2018-03-18T00:54:31.882Z,18.02
2018-03-18T00:55:31.875Z,18.03
2018-03-18T00:56:31.857Z,18
2018-03-18T00:57:31.889Z,18
2018-03-18T00:58:31.880Z,18.02
2018-03-18T00:59:31.865Z,17.99
2018-03-18T01:00:31.882Z,17.97
2018-03-18T01:01:31.881Z,18.02
2018-03-18T01:02:31.851Z,17.98
2018-03-18T01:03:32.141Z,17.95
2018-03-18T01:04:31.879Z,18.02
2018-03-18T01:05:31.840Z,17.98
2018-03-18T01:06:31.881Z,17.96
2018-03-18T01:07:31.873Z,17.97
2018-03-18T01:08:31.892Z,17.94
2018-03-18T01:09:31.874Z,17.95
2018-03-18T01:10:31.861Z,17.97
2018-03-18T01:11:31.831Z,17.95
2018-03-18T01:12:31.876Z,17.95
2018-03-18T01:13:31.879Z,17.98
2018-03-18T01:14:31.869Z,17.95
2018-03-18T01:15:31.848Z,17.91
2018-03-18T01:16:31.881Z,17.98
2018-03-18T01:17:31.897Z,17.92
2018-03-18T01:18:31.912Z,17.94
2018-03-18T01:19:31.862Z,17.96
2018-03-18T01:20:31.858Z,17.92
2018-03-18T01:21:31.881Z,17.93
2018-03-18T01:22:31.899Z,17.94
2018-03-18T01:23:31.852Z,17.92
2018-03-18T01:24:31.892Z,17.88
2018-03-18T01:25:31.839Z,17.95
2018-03-18T01:26:31.867Z,17.89
2018-03-18T01:27:31.870Z,17.9
2018-03-18T01:28:31.854Z,17.91
2018-03-18T01:29:31.854Z,17.88
2018-03-18T01:30:31.884Z,17.88
2018-03-18T01:31:31.819Z,17.91
2018-03-18T01:32:31.871Z,17.89
2018-03-18T01:33:31.872Z,17.88
2018-03-18T01:34:31.993Z,17.9
2018-03-18T01:35:31.826Z,17.85
2018-03-18T01:36:31.871Z,17.87
2018-03-18T01:37:31.863Z,17.88
2018-03-18T01:38:31.832Z,17.87
2018-03-18T01:39:31.889Z,17.88
2018-03-18T01:40:31.827Z,17.87
2018-03-18T01:41:31.827Z,17.83
2018-03-18T01:42:31.863Z,17.84
2018-03-18T01:43:31.865Z,17.87
2018-03-18T01:44:31.851Z,17.82
2018-03-18T01:45:31.862Z,17.81
2018-03-18T01:46:31.833Z,17.85
2018-03-18T01:47:31.831Z,17.83
2018-03-18T01:48:31.885Z,17.81
2018-03-18T01:49:31.879Z,17.84
2018-03-18T01:50:31.837Z,17.83
2018-03-18T01:51:31.849Z,17.83
2018-03-18T01:52:31.829Z,17.87
2018-03-18T01:53:31.869Z,17.8
2018-03-18T01:54:31.879Z,17.82
2018-03-18T01:55:31.842Z,17.87
2018-03-18T01:56:31.847Z,17.82
2018-03-18T01:57:31.867Z,17.8
2018-03-18T01:58:31.886Z,17.84
2018-03-18T01:59:31.842Z,17.8
2018-03-18T02:00:31.903Z,17.8
2018-03-18T02:01:31.813Z,17.8
2018-03-18T02:02:31.825Z,17.78
2018-03-18T02:03:31.874Z,17.78
2018-03-18T02:04:31.830Z,17.82
2018-03-18T02:05:31.859Z,17.8
2018-03-18T02:06:31.875Z,17.77
2018-03-18T02:07:31.817Z,17.79
2018-03-18T02:08:31.824Z,17.76
2018-03-18T02:09:31.859Z,17.78
2018-03-18T02:10:31.861Z,17.83
2018-03-18T02:11:31.848Z,17.77
2018-03-18T02:12:31.858Z,17.78
2018-03-18T02:13:31.853Z,17.77
2018-03-18T02:14:31.810Z,17.74
2018-03-18T02:15:31.848Z,17.73
2018-03-18T02:16:31.839Z,17.77
2018-03-18T02:17:31.836Z,17.72
2018-03-18T02:18:31.850Z,17.7
2018-03-18T02:19:31.826Z,17.76
2018-03-18T02:20:31.852Z,17.7
2018-03-18T02:21:31.880Z,17.73
2018-03-18T02:22:31.821Z,17.75
2018-03-18T02:23:31.827Z,17.7
2018-03-18T02:24:31.842Z,17.69
2018-03-18T02:25:31.886Z,17.73
2018-03-18T02:26:31.844Z,17.69
2018-03-18T02:27:31.857Z,17.69
2018-03-18T02:28:31.822Z,17.76
2018-03-18T02:29:31.835Z,17.7
2018-03-18T02:30:31.871Z,17.68
2018-03-18T02:31:31.865Z,17.7
2018-03-18T02:32:31.839Z,17.68
2018-03-18T02:33:31.863Z,17.69
2018-03-18T02:34:31.843Z,17.72
2018-03-18T02:35:31.859Z,17.65
2018-03-18T02:36:31.877Z,17.66
2018-03-18T02:37:31.870Z,17.69
2018-03-18T02:38:31.861Z,17.68
2018-03-18T02:39:31.878Z,17.66
2018-03-18T02:40:31.831Z,17.67
2018-03-18T02:41:31.827Z,17.64
2018-03-18T02:42:31.882Z,17.65
2018-03-18T02:43:31.811Z,17.64
2018-03-18T02:44:31.853Z,17.63
2018-03-18T02:45:31.848Z,17.62
2018-03-18T02:46:31.839Z,17.63
2018-03-18T02:47:31.837Z,17.62
2018-03-18T02:48:31.963Z,17.63
2018-03-18T02:49:31.927Z,17.68
2018-03-18T02:50:31.881Z,17.66
2018-03-18T02:51:31.916Z,17.62
2018-03-18T02:52:31.818Z,17.64
2018-03-18T02:53:31.841Z,17.63
2018-03-18T02:54:31.888Z,17.62
2018-03-18T02:55:31.834Z,17.65
2018-03-18T02:56:31.860Z,17.63
2018-03-18T02:57:31.851Z,17.61
2018-03-18T02:58:31.858Z,17.63
2018-03-18T02:59:31.837Z,17.58
2018-03-18T03:00:31.846Z,17.61
2018-03-18T03:01:31.834Z,17.62
2018-03-18T03:02:31.869Z,17.59
2018-03-18T03:03:31.858Z,17.61
2018-03-18T03:04:31.869Z,17.61
2018-03-18T03:05:31.937Z,17.58
2018-03-18T03:06:31.840Z,17.59
2018-03-18T03:07:31.825Z,17.63
2018-03-18T03:08:31.816Z,17.56
2018-03-18T03:09:31.831Z,17.55
2018-03-18T03:10:31.851Z,17.58
2018-03-18T03:11:31.815Z,17.58
2018-03-18T03:12:31.841Z,17.59
2018-03-18T03:13:31.798Z,17.59
2018-03-18T03:14:31.796Z,17.55
2018-03-18T03:15:31.861Z,17.54
2018-03-18T03:16:32.036Z,17.56
2018-03-18T03:17:31.834Z,17.53
2018-03-18T03:18:31.868Z,17.55
2018-03-18T03:19:31.822Z,17.59
2018-03-18T03:20:31.799Z,17.53
2018-03-18T03:21:31.839Z,17.55
2018-03-18T03:22:31.820Z,17.56
2018-03-18T03:23:31.802Z,17.52
2018-03-18T03:24:31.832Z,17.53
2018-03-18T03:25:31.815Z,17.53
2018-03-18T03:26:31.821Z,17.54
2018-03-18T03:27:31.946Z,17.51
2018-03-18T03:28:31.833Z,17.53
2018-03-18T03:29:31.789Z,17.51
2018-03-18T03:30:31.836Z,17.5
2018-03-18T03:31:31.829Z,17.52
2018-03-18T03:32:31.833Z,17.5
2018-03-18T03:33:31.840Z,17.5
2018-03-18T03:34:31.790Z,17.52
2018-03-18T03:35:31.834Z,17.49
2018-03-18T03:36:31.825Z,17.49
2018-03-18T03:37:31.803Z,17.51
2018-03-18T03:38:31.822Z,17.52
2018-03-18T03:39:31.839Z,17.5
2018-03-18T03:40:31.829Z,17.52
2018-03-18T03:41:31.845Z,17.5
2018-03-18T03:42:31.846Z,17.48
2018-03-18T03:43:31.783Z,17.5
2018-03-18T03:44:31.812Z,17.47
2018-03-18T03:45:31.831Z,17.47
2018-03-18T03:46:31.806Z,17.5
2018-03-18T03:47:31.856Z,17.45
2018-03-18T03:48:31.826Z,17.47
2018-03-18T03:49:31.820Z,17.46
2018-03-18T03:50:31.816Z,17.47
2018-03-18T03:51:31.818Z,17.46
2018-03-18T03:52:31.835Z,17.46
2018-03-18T03:53:31.812Z,17.45
2018-03-18T03:54:31.817Z,17.44
2018-03-18T03:55:31.811Z,17.46
2018-03-18T03:56:31.788Z,17.44
2018-03-18T03:57:31.838Z,17.43
2018-03-18T03:58:31.779Z,17.43
2018-03-18T03:59:31.810Z,17.4
2018-03-18T04:00:31.813Z,17.43
2018-03-18T04:01:31.786Z,17.41
2018-03-18T04:02:31.807Z,17.41
2018-03-18T04:03:31.814Z,17.4
2018-03-18T04:04:31.782Z,17.4
2018-03-18T04:05:31.787Z,17.41
2018-03-18T04:06:31.866Z,17.43
2018-03-18T04:07:31.813Z,17.44
2018-03-18T04:08:31.806Z,17.41
2018-03-18T04:09:31.815Z,17.39
2018-03-18T04:10:31.782Z,17.41
2018-03-18T04:11:31.795Z,17.39
2018-03-18T04:12:31.809Z,17.38
2018-03-18T04:13:31.798Z,17.43
2018-03-18T04:14:31.794Z,17.4
2018-03-18T04:15:31.819Z,17.4
2018-03-18T04:16:31.986Z,17.39
2018-03-18T04:17:31.796Z,17.37
2018-03-18T04:18:31.804Z,17.37
2018-03-18T04:19:31.805Z,17.4
2018-03-18T04:20:31.817Z,17.36
2018-03-18T04:21:31.840Z,17.4
2018-03-18T04:22:31.821Z,17.39
2018-03-18T04:23:31.814Z,17.37
2018-03-18T04:24:31.828Z,17.39
2018-03-18T04:25:31.781Z,17.38
2018-03-18T04:26:31.784Z,17.38
2018-03-18T04:27:31.821Z,17.38
2018-03-18T04:28:31.785Z,17.38
2018-03-18T04:29:31.771Z,17.35
2018-03-18T04:30:31.803Z,17.37
2018-03-18T04:31:31.823Z,17.37
2018-03-18T04:32:31.834Z,17.37
2018-03-18T04:33:31.802Z,17.36
2018-03-18T04:34:31.805Z,17.34
2018-03-18T04:35:31.795Z,17.36
2018-03-18T04:36:31.811Z,17.35
2018-03-18T04:37:31.833Z,17.36
2018-03-18T04:38:31.784Z,17.36
2018-03-18T04:39:31.802Z,17.32
2018-03-18T04:40:31.764Z,17.35
2018-03-18T04:41:31.775Z,17.33
2018-03-18T04:42:31.853Z,17.36
2018-03-18T04:43:31.802Z,17.36
2018-03-18T04:44:31.799Z,17.35
2018-03-18T04:45:31.811Z,17.33
2018-03-18T04:46:31.766Z,17.35
2018-03-18T04:47:31.769Z,17.33
2018-03-18T04:48:31.820Z,17.34
2018-03-18T04:49:31.866Z,17.33
2018-03-18T04:50:31.880Z,17.33
2018-03-18T04:51:31.803Z,17.32
2018-03-18T04:52:31.770Z,17.35
2018-03-18T04:53:31.801Z,17.32
2018-03-18T04:54:31.798Z,17.32
2018-03-18T04:55:31.767Z,17.37
2018-03-18T04:56:31.791Z,17.34
2018-03-18T04:57:31.817Z,17.34
2018-03-18T04:58:31.769Z,17.35
2018-03-18T04:59:31.760Z,17.33
2018-03-18T05:00:31.818Z,17.37
2018-03-18T05:01:31.813Z,17.38
2018-03-18T05:02:31.784Z,17.35
2018-03-18T05:03:31.797Z,17.38
2018-03-18T05:04:31.796Z,17.37
2018-03-18T05:05:31.784Z,17.39
2018-03-18T05:06:31.813Z,17.41
2018-03-18T05:07:31.757Z,17.4
2018-03-18T05:08:31.759Z,17.4
2018-03-18T05:09:31.798Z,17.41
2018-03-18T05:10:31.759Z,17.46
2018-03-18T05:11:31.768Z,17.44
2018-03-18T05:12:31.918Z,17.45
2018-03-18T05:13:31.787Z,17.47
2018-03-18T05:14:31.784Z,17.51
2018-03-18T05:15:31.810Z,17.51
2018-03-18T05:16:31.801Z,17.54
2018-03-18T05:17:31.792Z,17.55
2018-03-18T05:18:31.792Z,17.56
2018-03-18T05:19:31.790Z,17.59
2018-03-18T05:20:31.802Z,17.6
2018-03-18T05:21:31.801Z,17.63
2018-03-18T05:22:31.772Z,17.62
2018-03-18T05:23:31.785Z,17.66
2018-03-18T05:24:31.809Z,17.7
2018-03-18T05:25:31.791Z,17.73
2018-03-18T05:26:31.791Z,17.74
2018-03-18T05:27:31.793Z,17.75
2018-03-18T05:28:31.772Z,17.76
2018-03-18T05:29:31.792Z,17.77
2018-03-18T05:30:31.796Z,17.79
2018-03-18T05:31:31.766Z,17.82
2018-03-18T05:32:31.756Z,17.84
2018-03-18T05:33:31.791Z,17.85
2018-03-18T05:34:31.752Z,17.88
2018-03-18T05:35:31.960Z,17.91
2018-03-18T05:36:31.789Z,17.94
2018-03-18T05:37:31.749Z,17.93
2018-03-18T05:38:31.751Z,17.95
2018-03-18T05:39:31.794Z,17.97
2018-03-18T05:40:31.786Z,17.98
2018-03-18T05:41:31.789Z,17.99
2018-03-18T05:42:31.782Z,18.03
2018-03-18T05:43:31.826Z,18.04
2018-03-18T05:44:31.777Z,18.06
2018-03-18T05:45:31.962Z,18.08
2018-03-18T05:46:31.748Z,18.09
2018-03-18T05:47:31.798Z,18.12
2018-03-18T05:48:31.791Z,18.12
2018-03-18T05:49:31.743Z,18.13
2018-03-18T05:50:31.793Z,18.13
2018-03-18T05:51:31.799Z,18.15
2018-03-18T05:52:31.760Z,18.18
2018-03-18T05:53:31.770Z,18.19
2018-03-18T05:54:31.784Z,18.22
2018-03-18T05:55:31.796Z,18.21
2018-03-18T05:56:31.751Z,18.23
2018-03-18T05:57:31.774Z,18.23
2018-03-18T05:58:31.770Z,18.26
2018-03-18T05:59:31.772Z,18.27
2018-03-18T06:00:31.804Z,18.29
2018-03-18T06:01:31.749Z,18.29
2018-03-18T06:02:31.748Z,18.3
2018-03-18T06:03:31.782Z,18.33
2018-03-18T06:04:31.751Z,18.33
2018-03-18T06:05:31.792Z,18.36
2018-03-18T06:06:31.793Z,18.38
2018-03-18T06:07:31.732Z,18.35
2018-03-18T06:08:31.736Z,18.37
2018-03-18T06:09:31.786Z,18.39
2018-03-18T06:10:31.793Z,18.38
2018-03-18T06:11:31.744Z,18.4
2018-03-18T06:12:31.977Z,18.41
2018-03-18T06:13:31.759Z,18.41
2018-03-18T06:14:31.747Z,18.42
2018-03-18T06:15:31.784Z,18.43
2018-03-18T06:16:31.742Z,18.44
2018-03-18T06:17:31.804Z,18.47
2018-03-18T06:18:31.774Z,18.46
2018-03-18T06:19:31.792Z,18.49
2018-03-18T06:20:31.787Z,18.49
2018-03-18T06:21:31.775Z,18.52
2018-03-18T06:22:31.731Z,18.53
2018-03-18T06:23:31.738Z,18.51
2018-03-18T06:24:31.819Z,18.52
2018-03-18T06:25:31.768Z,18.53
2018-03-18T06:26:31.754Z,18.54
2018-03-18T06:27:31.762Z,18.55
2018-03-18T06:28:31.766Z,18.56
2018-03-18T06:29:31.756Z,18.55
2018-03-18T06:30:31.763Z,18.57
2018-03-18T06:31:32.192Z,18.57
2018-03-18T06:32:31.769Z,18.59
2018-03-18T06:33:31.788Z,18.61
2018-03-18T06:34:31.738Z,18.58
2018-03-18T06:35:31.777Z,18.63
2018-03-18T06:36:31.779Z,18.61
2018-03-18T06:37:32.008Z,18.62
2018-03-18T06:38:31.748Z,18.63
2018-03-18T06:39:31.767Z,18.64
2018-03-18T06:40:31.765Z,18.64
2018-03-18T06:41:31.768Z,18.66
2018-03-18T06:42:31.783Z,18.67
2018-03-18T06:43:31.735Z,18.65
2018-03-18T06:44:31.746Z,18.66
2018-03-18T06:45:31.764Z,18.68
2018-03-18T06:46:31.742Z,18.67
2018-03-18T06:47:31.729Z,18.68
2018-03-18T06:48:31.779Z,18.7
2018-03-18T06:49:31.732Z,18.71
2018-03-18T06:50:31.860Z,18.7
2018-03-18T06:51:31.901Z,18.72
2018-03-18T06:52:31.787Z,18.72
2018-03-18T06:53:31.808Z,18.71
2018-03-18T06:54:31.768Z,18.74
2018-03-18T06:55:31.734Z,18.73
2018-03-18T06:56:31.893Z,18.76
2018-03-18T06:57:31.762Z,18.77
2018-03-18T06:58:31.755Z,18.74
2018-03-18T06:59:31.737Z,18.76
2018-03-18T07:00:31.762Z,18.78
2018-03-18T07:01:31.906Z,18.79
2018-03-18T07:02:31.783Z,18.77
2018-03-18T07:03:31.757Z,18.79
2018-03-18T07:04:31.760Z,18.8
2018-03-18T07:05:31.730Z,18.81
2018-03-18T07:06:31.760Z,18.82
2018-03-18T07:07:31.766Z,18.8
2018-03-18T07:08:31.758Z,18.83
2018-03-18T07:09:31.780Z,18.83
2018-03-18T07:10:31.717Z,18.84
2018-03-18T07:11:31.734Z,18.84
2018-03-18T07:12:31.755Z,18.84
2018-03-18T07:13:31.764Z,18.83
2018-03-18T07:14:31.725Z,18.85
2018-03-18T07:15:31.813Z,18.84
2018-03-18T07:16:31.747Z,18.87
2018-03-18T07:17:31.717Z,18.88
2018-03-18T07:18:31.748Z,18.88
2018-03-18T07:19:31.729Z,18.87
2018-03-18T07:20:31.762Z,18.88
2018-03-18T07:21:31.796Z,18.88
2018-03-18T07:22:31.739Z,18.93
2018-03-18T07:23:31.781Z,18.91
2018-03-18T07:24:31.759Z,18.94
2018-03-18T07:25:32.025Z,18.93
2018-03-18T07:26:31.778Z,18.94
2018-03-18T07:27:31.762Z,18.94
2018-03-18T07:28:31.741Z,18.93
2018-03-18T07:29:31.738Z,18.92
2018-03-18T07:30:31.780Z,18.96
2018-03-18T07:31:31.755Z,18.97
2018-03-18T07:32:31.726Z,18.97
2018-03-18T07:33:31.752Z,18.96
2018-03-18T07:34:31.746Z,18.97
2018-03-18T07:35:31.723Z,18.97
2018-03-18T07:36:32.133Z,18.98
2018-03-18T07:37:31.726Z,18.97
2018-03-18T07:38:32.032Z,18.98
2018-03-18T07:39:31.749Z,18.98
2018-03-18T07:40:31.736Z,18.98
2018-03-18T07:41:31.738Z,19
2018-03-18T07:42:31.745Z,19.01
2018-03-18T07:43:31.756Z,18.99
2018-03-18T07:44:31.752Z,19.02
2018-03-18T07:45:31.744Z,19.02
2018-03-18T07:46:31.716Z,19.03
2018-03-18T07:47:31.727Z,19.01
2018-03-18T07:48:31.779Z,19.03
2018-03-18T07:49:31.711Z,19.02
2018-03-18T07:50:31.851Z,19.05
2018-03-18T07:51:31.778Z,19.05
2018-03-18T07:52:31.758Z,19.06
2018-03-18T07:53:31.721Z,19.06
2018-03-18T07:54:31.758Z,19.07
2018-03-18T07:55:31.709Z,19.07
2018-03-18T07:56:31.730Z,19.03
2018-03-18T07:57:31.760Z,19.09
2018-03-18T07:58:31.712Z,19.08
2018-03-18T07:59:31.700Z,19.07
2018-03-18T08:00:31.753Z,19.07
2018-03-18T08:01:31.716Z,19.09
2018-03-18T08:02:31.733Z,19.09
2018-03-18T08:03:31.807Z,19.09
2018-03-18T08:04:31.740Z,19.09
2018-03-18T08:05:31.714Z,19.1
2018-03-18T08:06:31.771Z,19.12
2018-03-18T08:07:32.016Z,19.11
2018-03-18T08:08:31.701Z,19.11
2018-03-18T08:09:31.745Z,19.11
2018-03-18T08:10:31.731Z,19.13
2018-03-18T08:11:31.711Z,19.14
2018-03-18T08:12:31.952Z,19.13
2018-03-18T08:13:31.703Z,19.13
2018-03-18T08:14:31.728Z,19.13
2018-03-18T08:15:31.739Z,19.15
2018-03-18T08:16:31.730Z,19.14
2018-03-18T08:17:31.735Z,19.13
2018-03-18T08:18:31.723Z,19.16
2018-03-18T08:19:31.728Z,19.15
2018-03-18T08:20:31.716Z,19.16
2018-03-18T08:21:31.743Z,19.17
2018-03-18T08:22:31.733Z,19.17
2018-03-18T08:23:31.721Z,19.17
2018-03-18T08:24:31.752Z,19.18
2018-03-18T08:25:31.695Z,19.17
2018-03-18T08:26:31.714Z,19.18
2018-03-18T08:27:31.729Z,19.2
2018-03-18T08:28:31.714Z,19.2
2018-03-18T08:29:31.709Z,19.2
2018-03-18T08:30:31.732Z,19.21
2018-03-18T08:31:31.720Z,19.18
2018-03-18T08:32:31.715Z,19.2
2018-03-18T08:33:31.753Z,19.21
2018-03-18T08:34:31.711Z,19.2
2018-03-18T08:35:31.695Z,19.18
2018-03-18T08:36:31.752Z,19.21
2018-03-18T08:37:31.722Z,19.21
2018-03-18T08:38:31.728Z,19.21
2018-03-18T08:39:31.754Z,19.23
2018-03-18T08:40:31.700Z,19.21
2018-03-18T08:41:31.728Z,19.22
2018-03-18T08:42:31.729Z,19.22
2018-03-18T08:43:31.699Z,19.2
2018-03-18T08:44:31.750Z,19.22
2018-03-18T08:45:31.722Z,19.23
2018-03-18T08:46:31.695Z,19.2
2018-03-18T08:47:31.691Z,19.21
2018-03-18T08:48:31.732Z,19.21
2018-03-18T08:49:31.735Z,19.2
2018-03-18T08:50:31.730Z,19.21
2018-03-18T08:51:31.852Z,19.21
2018-03-18T08:52:31.808Z,19.18
2018-03-18T08:53:31.681Z,19.18
2018-03-18T08:54:31.726Z,19.18
2018-03-18T08:55:31.741Z,19.17
2018-03-18T08:56:31.693Z,19.17
2018-03-18T08:57:31.761Z,19.15
2018-03-18T08:58:31.704Z,19.17
2018-03-18T08:59:31.717Z,19.17
2018-03-18T09:00:31.742Z,19.16
2018-03-18T09:01:31.720Z,19.16
2018-03-18T09:02:31.690Z,19.17
2018-03-18T09:03:31.718Z,19.2
2018-03-18T09:04:31.687Z,19.17
2018-03-18T09:05:31.720Z,19.21
2018-03-18T09:05:48.094Z,19.24
2018-03-18T09:06:48.072Z,19.22
2018-03-18T09:07:48.055Z,19.23
2018-03-18T09:08:48.074Z,19.25
2018-03-18T09:09:48.074Z,19.26
2018-03-18T09:10:48.050Z,19.26
2018-03-18T09:11:48.073Z,19.25
2018-03-18T09:12:48.049Z,19.29
2018-03-18T09:13:48.064Z,19.27
2018-03-18T09:14:48.067Z,19.31
2018-03-18T09:15:48.045Z,19.31
2018-03-18T09:16:48.092Z,19.33
2018-03-18T09:17:48.342Z,19.33
2018-03-18T09:18:48.044Z,19.36
2018-03-18T09:19:48.045Z,19.37
2018-03-18T09:20:48.108Z,19.38
2018-03-18T09:21:48.052Z,19.4
2018-03-18T09:22:48.053Z,19.42
2018-03-18T09:23:48.086Z,19.41
2018-03-18T09:24:48.048Z,19.44
2018-03-18T09:25:48.056Z,19.44
2018-03-18T09:26:48.081Z,19.45
2018-03-18T09:27:48.044Z,19.46
2018-03-18T09:28:48.050Z,19.47
2018-03-18T09:29:48.054Z,19.44
2018-03-18T09:30:48.043Z,19.47
2018-03-18T09:31:48.039Z,19.47
2018-03-18T09:32:48.053Z,19.48
2018-03-18T09:33:48.226Z,19.5
2018-03-18T09:34:48.045Z,19.51
2018-03-18T09:35:48.069Z,19.5
2018-03-18T09:36:48.034Z,19.52
2018-03-18T09:37:48.037Z,19.5
2018-03-18T09:38:48.093Z,19.54
2018-03-18T09:39:48.085Z,19.57
2018-03-18T09:40:48.033Z,19.58
2018-03-18T09:41:48.054Z,19.59
2018-03-18T09:42:48.040Z,19.59
2018-03-18T09:43:48.071Z,19.59
2018-03-18T09:44:47.905Z,19.62
2018-03-18T09:45:48.060Z,19.61
2018-03-18T09:46:48.038Z,19.62
2018-03-18T09:47:48.044Z,19.65
2018-03-18T09:48:48.189Z,19.65
2018-03-18T09:49:48.059Z,19.67
2018-03-18T09:50:48.068Z,19.68
2018-03-18T09:51:48.056Z,19.67
2018-03-18T09:52:48.049Z,19.67
2018-03-18T09:53:48.068Z,19.7
2018-03-18T09:54:48.036Z,19.67
2018-03-18T09:55:48.064Z,19.69
2018-03-18T09:56:48.062Z,19.68
2018-03-18T09:57:48.082Z,19.7
2018-03-18T09:58:48.043Z,19.7
2018-03-18T09:59:48.068Z,19.72
2018-03-18T10:00:48.070Z,19.7
2018-03-18T10:01:48.040Z,19.71
2018-03-18T10:02:48.126Z,19.73
2018-03-18T10:03:48.028Z,19.73
2018-03-18T10:04:48.047Z,19.72
2018-03-18T10:05:48.180Z,19.72
2018-03-18T10:06:48.032Z,19.72
2018-03-18T10:07:48.051Z,19.68
2018-03-18T10:08:48.040Z,19.71
2018-03-18T10:09:48.068Z,19.71
2018-03-18T10:10:48.055Z,19.73
2018-03-18T10:11:48.069Z,19.73
2018-03-18T10:12:48.034Z,19.74
2018-03-18T10:13:48.030Z,19.74
2018-03-18T10:14:48.040Z,19.75
2018-03-18T10:15:48.031Z,19.76
2018-03-18T10:16:48.066Z,19.75
2018-03-18T10:17:48.067Z,19.76
2018-03-18T10:18:48.042Z,19.76
2018-03-18T10:19:48.041Z,19.72
2018-03-18T10:20:48.067Z,19.72
2018-03-18T10:21:48.169Z,19.75
2018-03-18T10:22:48.025Z,19.77
2018-03-18T10:23:48.044Z,19.75
2018-03-18T10:24:48.053Z,19.8
2018-03-18T10:25:48.022Z,19.79
2018-03-18T10:26:48.106Z,19.79
2018-03-18T10:27:48.036Z,19.81
2018-03-18T10:28:48.073Z,19.8
2018-03-18T10:29:48.054Z,19.81
2018-03-18T10:30:48.016Z,19.81
2018-03-18T10:31:48.045Z,19.81
2018-03-18T10:32:48.058Z,19.81
2018-03-18T10:33:48.056Z,19.8
2018-03-18T10:34:48.026Z,19.82
2018-03-18T10:35:48.054Z,19.81
2018-03-18T10:36:48.056Z,19.82
2018-03-18T10:37:48.040Z,19.81
2018-03-18T10:38:48.039Z,19.83
2018-03-18T10:39:48.034Z,19.86
2018-03-18T10:40:48.037Z,19.85
2018-03-18T10:41:48.076Z,19.87
2018-03-18T10:42:48.190Z,19.89
2018-03-18T10:43:48.024Z,19.88
2018-03-18T10:44:48.037Z,19.89
2018-03-18T10:45:48.058Z,19.89
2018-03-18T10:46:48.025Z,19.94
2018-03-18T10:47:48.096Z,19.92
2018-03-18T10:48:48.123Z,19.94
2018-03-18T10:49:48.123Z,19.94
2018-03-18T10:50:48.043Z,19.96
2018-03-18T10:51:48.020Z,19.96
2018-03-18T10:52:48.034Z,19.94
2018-03-18T10:53:48.037Z,19.91
2018-03-18T10:54:48.049Z,19.91
2018-03-18T10:55:48.016Z,19.91
2018-03-18T10:56:48.049Z,19.91
2018-03-18T10:57:48.017Z,19.9
2018-03-18T10:58:48.048Z,19.99
2018-03-18T10:59:48.072Z,19.96
2018-03-18T11:00:48.009Z,20.01
2018-03-18T11:01:48.023Z,20.02
2018-03-18T11:02:48.085Z,20.01
2018-03-18T11:03:48.023Z,20.01
2018-03-18T11:04:48.045Z,20.01
2018-03-18T11:05:48.047Z,20.02
2018-03-18T11:06:48.014Z,20.03
2018-03-18T11:07:48.014Z,19.99
2018-03-18T11:08:48.341Z,20
2018-03-18T11:09:48.002Z,20.01
2018-03-18T11:10:48.011Z,20
2018-03-18T11:11:48.043Z,20
2018-03-18T11:12:48.047Z,19.96
2018-03-18T11:13:48.297Z,19.97
2018-03-18T11:14:48.065Z,19.95
2018-03-18T11:15:48.016Z,19.95
2018-03-18T11:16:48.120Z,19.92
2018-03-18T11:17:48.085Z,19.91
2018-03-18T11:18:48.044Z,19.91
2018-03-18T11:19:48.018Z,19.94
2018-03-18T11:20:48.181Z,19.98
2018-03-18T11:21:48.012Z,19.98
2018-03-18T11:22:48.117Z,19.99
2018-03-18T11:23:48.392Z,20.01
2018-03-18T11:24:48.123Z,20.01
2018-03-18T11:25:48.082Z,20.02
2018-03-18T11:28:23.654Z,20.2
2018-03-18T11:29:04.247Z,20.24
2018-03-18T11:30:04.619Z,20.26
2018-03-18T11:31:04.231Z,20.24
2018-03-18T11:32:04.317Z,20.29
2018-03-18T11:33:04.229Z,20.33
2018-03-18T11:34:04.367Z,20.34
2018-03-18T11:35:04.242Z,20.35
2018-03-18T11:36:04.338Z,20.37
2018-03-18T11:37:04.336Z,20.37
2018-03-18T11:38:04.351Z,20.39
2018-03-18T11:39:04.270Z,20.42
2018-03-18T11:40:04.321Z,20.41
2018-03-18T11:41:04.277Z,20.42
2018-03-18T11:42:04.474Z,20.42
2018-03-18T11:43:04.225Z,20.42
2018-03-18T11:43:56.979Z,20.44
2018-03-18T11:44:56.968Z,20.45
2018-03-18T11:45:56.919Z,20.47
2018-03-18T11:46:56.961Z,20.47
2018-03-18T11:53:49.233Z,20.45
2018-03-18T11:54:49.056Z,20.54
2018-03-18T11:55:25.139Z,20.55
2018-03-18T11:56:25.150Z,20.56
2018-03-18T11:57:23.762Z,20.57
2018-03-18T12:01:01.608Z,20.61
2018-03-18T12:02:01.641Z,20.55
2018-03-18T12:03:01.574Z,20.54
2018-03-18T12:04:01.575Z,20.53
2018-03-18T12:05:01.563Z,20.5
2018-03-18T12:06:01.573Z,20.51
2018-03-18T12:07:01.563Z,20.49
2018-03-18T12:08:01.569Z,20.46
2018-03-18T12:09:01.588Z,20.45
2018-03-18T12:10:01.564Z,20.45
2018-03-18T12:11:01.555Z,20.45
2018-03-18T12:12:01.638Z,20.42
2018-03-18T12:13:01.561Z,20.43
2018-03-18T12:14:01.602Z,20.42
2018-03-18T12:15:01.557Z,20.44
2018-03-18T12:16:01.552Z,20.42
2018-03-18T12:17:01.551Z,20.42
2018-03-18T12:18:01.554Z,20.4
2018-03-18T12:19:01.647Z,20.42
2018-03-18T12:20:01.558Z,20.37
2018-03-18T12:21:01.559Z,20.39
2018-03-18T12:22:01.549Z,20.39
2018-03-18T12:23:01.597Z,20.41
2018-03-18T12:24:01.572Z,20.42
2018-03-18T12:25:01.630Z,20.42
2018-03-18T12:26:01.622Z,20.4
2018-03-18T12:27:01.653Z,20.42
2018-03-18T12:28:01.715Z,20.39
2018-03-18T12:29:01.669Z,20.4
2018-03-18T12:30:01.595Z,20.39
2018-03-18T12:31:01.572Z,20.39
2018-03-18T12:32:01.608Z,20.41
2018-03-18T12:33:01.631Z,20.42
2018-03-18T12:34:01.635Z,20.42
2018-03-18T12:35:01.554Z,20.41
2018-03-18T12:36:01.576Z,20.41
2018-03-18T12:37:01.592Z,20.41
2018-03-18T12:38:01.644Z,20.42
2018-03-18T12:39:04.969Z,20.42
2018-03-18T12:40:01.843Z,20.42
2018-03-18T12:41:01.775Z,20.42
2018-03-18T12:42:01.628Z,20.42
2018-03-18T12:43:01.692Z,20.42
2018-03-18T12:44:01.680Z,20.43
2018-03-18T12:45:01.662Z,20.45
2018-03-18T12:46:01.540Z,20.47
2018-03-18T12:47:01.544Z,20.49
2018-03-18T12:48:01.538Z,20.5
2018-03-18T12:49:01.559Z,20.5
2018-03-18T12:50:01.548Z,20.5
2018-03-18T12:51:01.553Z,20.48
2018-03-18T12:52:01.536Z,20.51
2018-03-18T12:53:01.957Z,20.53
2018-03-18T12:54:01.554Z,20.54
2018-03-18T12:55:01.657Z,20.54
2018-03-18T12:56:01.549Z,20.53
2018-03-18T12:57:02.198Z,20.54
2018-03-18T12:58:01.678Z,20.57
2018-03-18T12:59:01.568Z,20.55
2018-03-18T13:00:01.660Z,20.51
2018-03-18T13:01:01.610Z,20.53
2018-03-18T13:02:01.632Z,20.53
2018-03-18T13:03:01.663Z,20.51
2018-03-18T13:04:01.729Z,20.5